sensor_id;sensor_type;location;lat;lon;timestamp;P1;durP1;ratioP1;P2;durP2;ratioP2
13607;SDS011;6875;50.852;5.672;2024-02-28T00:01:27;32.83;;;20.03;;
13607;SDS011;6875;50.852;5.672;2024-02-28T00:03:54;31.13;;;20.23;;
13607;SDS011;6875;50.852;5.672;2024-02-28T00:06:20;32.17;;;20.20;;
13607;SDS011;6875;50.852;5.672;2024-02-28T00:08:47;30.53;;;18.80;;
13607;SDS011;6875;50.852;5.672;2024-02-28T00:11:15;28.20;;;19.13;;
13607;SDS011;6875;50.852;5.672;2024-02-28T00:13:42;27.27;;;17.83;;
13607;SDS011;6875;50.852;5.672;2024-02-28T00:16:10;26.83;;;18.00;;
13607;SDS011;6875;50.852;5.672;2024-02-28T00:18:37;30.37;;;19.10;;
13607;SDS011;6875;50.852;5.672;2024-02-28T00:21:03;26.90;;;17.67;;
13607;SDS011;6875;50.852;5.672;2024-02-28T00:23:30;28.00;;;17.70;;
13607;SDS011;6875;50.852;5.672;2024-02-28T00:25:57;29.83;;;20.30;;
13607;SDS011;6875;50.852;5.672;2024-02-28T00:28:24;24.83;;;17.30;;
13607;SDS011;6875;50.852;5.672;2024-02-28T00:30:50;26.57;;;17.17;;
13607;SDS011;6875;50.852;5.672;2024-02-28T00:33:18;26.30;;;16.50;;
13607;SDS011;6875;50.852;5.672;2024-02-28T00:35:45;23.17;;;17.07;;
13607;SDS011;6875;50.852;5.672;2024-02-28T00:38:12;28.03;;;17.67;;
13607;SDS011;6875;50.852;5.672;2024-02-28T00:40:38;25.20;;;16.83;;
13607;SDS011;6875;50.852;5.672;2024-02-28T00:43:05;25.57;;;17.13;;
13607;SDS011;6875;50.852;5.672;2024-02-28T00:45:31;24.70;;;17.57;;
13607;SDS011;6875;50.852;5.672;2024-02-28T00:47:58;26.47;;;17.93;;
13607;SDS011;6875;50.852;5.672;2024-02-28T00:50:26;26.37;;;17.13;;
13607;SDS011;6875;50.852;5.672;2024-02-28T00:52:53;27.97;;;17.03;;
13607;SDS011;6875;50.852;5.672;2024-02-28T00:55:19;21.53;;;16.73;;
13607;SDS011;6875;50.852;5.672;2024-02-28T00:57:46;22.70;;;17.30;;
13607;SDS011;6875;50.852;5.672;2024-02-28T01:00:13;25.03;;;17.63;;
13607;SDS011;6875;50.852;5.672;2024-02-28T01:02:40;25.77;;;18.07;;
13607;SDS011;6875;50.852;5.672;2024-02-28T01:05:07;24.50;;;16.37;;
13607;SDS011;6875;50.852;5.672;2024-02-28T01:07:35;26.13;;;16.97;;
13607;SDS011;6875;50.852;5.672;2024-02-28T01:10:02;24.50;;;16.83;;
13607;SDS011;6875;50.852;5.672;2024-02-28T01:12:29;22.03;;;16.23;;
13607;SDS011;6875;50.852;5.672;2024-02-28T01:14:56;27.83;;;16.80;;
13607;SDS011;6875;50.852;5.672;2024-02-28T01:17:23;24.93;;;16.43;;
13607;SDS011;6875;50.852;5.672;2024-02-28T01:19:49;23.83;;;17.60;;
13607;SDS011;6875;50.852;5.672;2024-02-28T01:22:16;24.57;;;17.33;;
13607;SDS011;6875;50.852;5.672;2024-02-28T01:24:44;23.83;;;16.77;;
13607;SDS011;6875;50.852;5.672;2024-02-28T01:27:11;23.10;;;16.03;;
13607;SDS011;6875;50.852;5.672;2024-02-28T01:29:37;23.97;;;16.57;;
13607;SDS011;6875;50.852;5.672;2024-02-28T01:32:04;26.40;;;17.47;;
13607;SDS011;6875;50.852;5.672;2024-02-28T01:34:31;20.33;;;16.27;;
13607;SDS011;6875;50.852;5.672;2024-02-28T01:36:57;24.10;;;15.83;;
13607;SDS011;6875;50.852;5.672;2024-02-28T01:39:24;22.83;;;17.03;;
13607;SDS011;6875;50.852;5.672;2024-02-28T01:41:52;25.63;;;17.50;;
13607;SDS011;6875;50.852;5.672;2024-02-28T01:44:19;27.10;;;17.90;;
13607;SDS011;6875;50.852;5.672;2024-02-28T01:46:46;24.03;;;16.50;;
13607;SDS011;6875;50.852;5.672;2024-02-28T01:49:13;24.20;;;16.37;;
13607;SDS011;6875;50.852;5.672;2024-02-28T01:51:40;27.67;;;16.90;;
13607;SDS011;6875;50.852;5.672;2024-02-28T01:54:08;22.23;;;15.90;;
13607;SDS011;6875;50.852;5.672;2024-02-28T01:56:34;27.20;;;16.17;;
13607;SDS011;6875;50.852;5.672;2024-02-28T01:59:02;24.17;;;16.10;;
13607;SDS011;6875;50.852;5.672;2024-02-28T02:01:30;21.17;;;15.70;;
13607;SDS011;6875;50.852;5.672;2024-02-28T02:03:56;21.77;;;14.07;;
13607;SDS011;6875;50.852;5.672;2024-02-28T02:06:23;23.13;;;15.43;;
13607;SDS011;6875;50.852;5.672;2024-02-28T02:08:50;17.80;;;13.83;;
13607;SDS011;6875;50.852;5.672;2024-02-28T02:11:17;18.67;;;14.47;;
13607;SDS011;6875;50.852;5.672;2024-02-28T02:13:49;20.20;;;14.60;;
13607;SDS011;6875;50.852;5.672;2024-02-28T02:16:18;19.67;;;13.37;;
13607;SDS011;6875;50.852;5.672;2024-02-28T02:18:47;20.23;;;14.33;;
13607;SDS011;6875;50.852;5.672;2024-02-28T02:21:15;20.23;;;13.90;;
13607;SDS011;6875;50.852;5.672;2024-02-28T02:23:45;21.83;;;14.60;;
13607;SDS011;6875;50.852;5.672;2024-02-28T02:26:11;18.87;;;14.13;;
13607;SDS011;6875;50.852;5.672;2024-02-28T02:28:38;21.60;;;16.03;;
13607;SDS011;6875;50.852;5.672;2024-02-28T02:31:05;19.23;;;14.07;;
13607;SDS011;6875;50.852;5.672;2024-02-28T02:33:31;21.53;;;14.53;;
13607;SDS011;6875;50.852;5.672;2024-02-28T02:35:58;18.60;;;13.87;;
13607;SDS011;6875;50.852;5.672;2024-02-28T02:38:24;20.07;;;13.73;;
13607;SDS011;6875;50.852;5.672;2024-02-28T02:40:53;19.17;;;13.80;;
13607;SDS011;6875;50.852;5.672;2024-02-28T02:43:19;19.17;;;14.30;;
13607;SDS011;6875;50.852;5.672;2024-02-28T02:45:48;21.50;;;14.57;;
13607;SDS011;6875;50.852;5.672;2024-02-28T02:48:15;22.03;;;14.03;;
13607;SDS011;6875;50.852;5.672;2024-02-28T02:50:42;19.90;;;14.60;;
13607;SDS011;6875;50.852;5.672;2024-02-28T02:53:09;20.40;;;15.13;;
13607;SDS011;6875;50.852;5.672;2024-02-28T02:55:36;20.77;;;15.23;;
13607;SDS011;6875;50.852;5.672;2024-02-28T02:58:04;19.23;;;14.97;;
13607;SDS011;6875;50.852;5.672;2024-02-28T03:00:31;21.53;;;14.57;;
13607;SDS011;6875;50.852;5.672;2024-02-28T03:02:57;20.10;;;14.47;;
13607;SDS011;6875;50.852;5.672;2024-02-28T03:05:24;21.23;;;16.70;;
13607;SDS011;6875;50.852;5.672;2024-02-28T03:07:51;26.67;;;15.40;;
13607;SDS011;6875;50.852;5.672;2024-02-28T03:10:17;21.70;;;15.63;;
13607;SDS011;6875;50.852;5.672;2024-02-28T03:12:44;23.00;;;15.30;;
13607;SDS011;6875;50.852;5.672;2024-02-28T03:15:12;17.97;;;14.90;;
13607;SDS011;6875;50.852;5.672;2024-02-28T03:17:39;18.33;;;14.57;;
13607;SDS011;6875;50.852;5.672;2024-02-28T03:20:06;21.90;;;15.10;;
13607;SDS011;6875;50.852;5.672;2024-02-28T03:22:33;17.17;;;13.77;;
13607;SDS011;6875;50.852;5.672;2024-02-28T03:24:59;21.20;;;14.20;;
13607;SDS011;6875;50.852;5.672;2024-02-28T03:27:26;19.83;;;14.07;;
13607;SDS011;6875;50.852;5.672;2024-02-28T03:29:53;18.87;;;13.87;;
13607;SDS011;6875;50.852;5.672;2024-02-28T03:32:21;18.37;;;14.47;;
13607;SDS011;6875;50.852;5.672;2024-02-28T03:34:47;22.53;;;15.07;;
13607;SDS011;6875;50.852;5.672;2024-02-28T03:37:14;18.50;;;14.00;;
13607;SDS011;6875;50.852;5.672;2024-02-28T03:39:41;19.13;;;14.70;;
13607;SDS011;6875;50.852;5.672;2024-02-28T03:42:07;18.27;;;13.57;;
13607;SDS011;6875;50.852;5.672;2024-02-28T03:44:34;21.97;;;14.67;;
13607;SDS011;6875;50.852;5.672;2024-02-28T03:47:00;18.27;;;13.17;;
13607;SDS011;6875;50.852;5.672;2024-02-28T03:49:29;18.17;;;13.80;;
13607;SDS011;6875;50.852;5.672;2024-02-28T03:51:55;22.23;;;15.63;;
13607;SDS011;6875;50.852;5.672;2024-02-28T03:54:22;20.97;;;16.10;;
13607;SDS011;6875;50.852;5.672;2024-02-28T03:56:48;23.53;;;17.13;;
13607;SDS011;6875;50.852;5.672;2024-02-28T03:59:15;20.33;;;16.30;;
13607;SDS011;6875;50.852;5.672;2024-02-28T04:01:42;21.13;;;16.40;;
13607;SDS011;6875;50.852;5.672;2024-02-28T04:04:08;23.47;;;17.37;;
13607;SDS011;6875;50.852;5.672;2024-02-28T04:06:36;28.50;;;18.30;;
13607;SDS011;6875;50.852;5.672;2024-02-28T04:09:03;23.07;;;17.50;;
13607;SDS011;6875;50.852;5.672;2024-02-28T04:11:30;24.27;;;18.03;;
13607;SDS011;6875;50.852;5.672;2024-02-28T04:13:56;21.03;;;17.60;;
13607;SDS011;6875;50.852;5.672;2024-02-28T04:16:23;26.47;;;19.27;;
13607;SDS011;6875;50.852;5.672;2024-02-28T04:18:50;22.63;;;17.57;;
13607;SDS011;6875;50.852;5.672;2024-02-28T04:21:16;23.67;;;17.77;;
13607;SDS011;6875;50.852;5.672;2024-02-28T04:23:44;27.97;;;18.23;;
13607;SDS011;6875;50.852;5.672;2024-02-28T04:26:10;26.70;;;18.53;;
13607;SDS011;6875;50.852;5.672;2024-02-28T04:28:37;21.60;;;17.33;;
13607;SDS011;6875;50.852;5.672;2024-02-28T04:31:03;23.43;;;16.97;;
13607;SDS011;6875;50.852;5.672;2024-02-28T04:33:29;24.60;;;17.93;;
13607;SDS011;6875;50.852;5.672;2024-02-28T04:35:56;25.60;;;18.33;;
13607;SDS011;6875;50.852;5.672;2024-02-28T04:38:23;22.47;;;18.10;;
13607;SDS011;6875;50.852;5.672;2024-02-28T04:40:51;25.33;;;17.50;;
13607;SDS011;6875;50.852;5.672;2024-02-28T04:43:17;25.20;;;19.00;;
13607;SDS011;6875;50.852;5.672;2024-02-28T04:45:44;23.73;;;17.97;;
13607;SDS011;6875;50.852;5.672;2024-02-28T04:48:10;24.10;;;18.70;;
13607;SDS011;6875;50.852;5.672;2024-02-28T04:50:37;24.23;;;18.70;;
13607;SDS011;6875;50.852;5.672;2024-02-28T04:53:04;24.23;;;19.37;;
13607;SDS011;6875;50.852;5.672;2024-02-28T04:55:30;28.03;;;20.20;;
13607;SDS011;6875;50.852;5.672;2024-02-28T04:57:58;25.17;;;19.10;;
13607;SDS011;6875;50.852;5.672;2024-02-28T05:00:25;28.67;;;19.53;;
13607;SDS011;6875;50.852;5.672;2024-02-28T05:02:52;26.10;;;20.33;;
13607;SDS011;6875;50.852;5.672;2024-02-28T05:05:19;28.73;;;20.43;;
13607;SDS011;6875;50.852;5.672;2024-02-28T05:07:49;32.73;;;21.60;;
13607;SDS011;6875;50.852;5.672;2024-02-28T05:10:16;29.30;;;21.17;;
13607;SDS011;6875;50.852;5.672;2024-02-28T05:12:43;25.60;;;20.63;;
13607;SDS011;6875;50.852;5.672;2024-02-28T05:15:11;34.73;;;21.80;;
13607;SDS011;6875;50.852;5.672;2024-02-28T05:17:38;26.27;;;20.27;;
13607;SDS011;6875;50.852;5.672;2024-02-28T05:20:05;29.37;;;20.83;;
13607;SDS011;6875;50.852;5.672;2024-02-28T05:22:32;31.23;;;22.20;;
13607;SDS011;6875;50.852;5.672;2024-02-28T05:24:59;30.70;;;22.00;;
13607;SDS011;6875;50.852;5.672;2024-02-28T05:27:26;28.43;;;21.93;;
13607;SDS011;6875;50.852;5.672;2024-02-28T05:30:04;29.27;;;22.07;;
13607;SDS011;6875;50.852;5.672;2024-02-28T05:32:33;38.73;;;23.77;;
13607;SDS011;6875;50.852;5.672;2024-02-28T05:35:00;29.77;;;22.93;;
13607;SDS011;6875;50.852;5.672;2024-02-28T05:37:27;31.00;;;22.70;;
13607;SDS011;6875;50.852;5.672;2024-02-28T05:39:53;28.73;;;23.17;;
13607;SDS011;6875;50.852;5.672;2024-02-28T05:42:20;29.07;;;22.87;;
13607;SDS011;6875;50.852;5.672;2024-02-28T05:44:47;31.73;;;23.43;;
13607;SDS011;6875;50.852;5.672;2024-02-28T05:47:14;33.40;;;24.30;;
13607;SDS011;6875;50.852;5.672;2024-02-28T05:49:45;32.70;;;23.27;;
13607;SDS011;6875;50.852;5.672;2024-02-28T05:52:12;36.40;;;24.57;;
13607;SDS011;6875;50.852;5.672;2024-02-28T05:54:40;36.37;;;25.40;;
13607;SDS011;6875;50.852;5.672;2024-02-28T05:57:06;34.17;;;24.33;;
13607;SDS011;6875;50.852;5.672;2024-02-28T05:59:33;33.53;;;24.30;;
13607;SDS011;6875;50.852;5.672;2024-02-28T06:02:00;34.40;;;25.03;;
13607;SDS011;6875;50.852;5.672;2024-02-28T06:04:26;35.10;;;25.27;;
13607;SDS011;6875;50.852;5.672;2024-02-28T06:06:54;36.93;;;24.87;;
13607;SDS011;6875;50.852;5.672;2024-02-28T06:09:21;35.50;;;25.20;;
13607;SDS011;6875;50.852;5.672;2024-02-28T06:11:47;39.53;;;26.63;;
13607;SDS011;6875;50.852;5.672;2024-02-28T06:14:14;38.70;;;25.40;;
13607;SDS011;6875;50.852;5.672;2024-02-28T06:16:41;42.30;;;25.33;;
13607;SDS011;6875;50.852;5.672;2024-02-28T06:19:07;40.43;;;26.50;;
13607;SDS011;6875;50.852;5.672;2024-02-28T06:21:34;41.37;;;26.77;;
13607;SDS011;6875;50.852;5.672;2024-02-28T06:24:02;35.47;;;26.13;;
13607;SDS011;6875;50.852;5.672;2024-02-28T06:26:29;43.43;;;27.87;;
13607;SDS011;6875;50.852;5.672;2024-02-28T06:28:56;38.77;;;27.53;;
13607;SDS011;6875;50.852;5.672;2024-02-28T06:31:26;37.33;;;26.97;;
13607;SDS011;6875;50.852;5.672;2024-02-28T06:33:54;39.00;;;27.77;;
13607;SDS011;6875;50.852;5.672;2024-02-28T06:36:21;40.93;;;28.50;;
13607;SDS011;6875;50.852;5.672;2024-02-28T06:38:48;41.87;;;27.97;;
13607;SDS011;6875;50.852;5.672;2024-02-28T06:41:16;38.37;;;27.50;;
13607;SDS011;6875;50.852;5.672;2024-02-28T06:43:42;43.57;;;28.00;;
13607;SDS011;6875;50.852;5.672;2024-02-28T06:46:11;38.17;;;26.83;;
13607;SDS011;6875;50.852;5.672;2024-02-28T06:48:37;38.50;;;27.33;;
13607;SDS011;6875;50.852;5.672;2024-02-28T06:51:04;39.77;;;26.87;;
13607;SDS011;6875;50.852;5.672;2024-02-28T06:53:31;36.97;;;26.50;;
13607;SDS011;6875;50.852;5.672;2024-02-28T06:55:57;38.60;;;26.90;;
13607;SDS011;6875;50.852;5.672;2024-02-28T06:58:25;38.30;;;26.63;;
13607;SDS011;6875;50.852;5.672;2024-02-28T07:00:52;35.83;;;25.60;;
13607;SDS011;6875;50.852;5.672;2024-02-28T07:03:18;39.27;;;25.43;;
13607;SDS011;6875;50.852;5.672;2024-02-28T07:05:45;36.53;;;25.13;;
13607;SDS011;6875;50.852;5.672;2024-02-28T07:08:12;35.33;;;24.33;;
13607;SDS011;6875;50.852;5.672;2024-02-28T07:10:39;37.43;;;25.10;;
13607;SDS011;6875;50.852;5.672;2024-02-28T07:13:08;34.03;;;24.47;;
13607;SDS011;6875;50.852;5.672;2024-02-28T07:15:36;41.90;;;23.87;;
13607;SDS011;6875;50.852;5.672;2024-02-28T07:18:03;32.57;;;23.67;;
13607;SDS011;6875;50.852;5.672;2024-02-28T07:20:30;36.77;;;23.60;;
13607;SDS011;6875;50.852;5.672;2024-02-28T07:22:56;35.70;;;22.97;;
13607;SDS011;6875;50.852;5.672;2024-02-28T07:25:23;36.13;;;23.07;;
13607;SDS011;6875;50.852;5.672;2024-02-28T07:27:49;37.10;;;25.13;;
13607;SDS011;6875;50.852;5.672;2024-02-28T07:30:16;35.80;;;22.80;;
13607;SDS011;6875;50.852;5.672;2024-02-28T07:32:44;32.73;;;22.63;;
13607;SDS011;6875;50.852;5.672;2024-02-28T07:35:12;34.10;;;22.57;;
13607;SDS011;6875;50.852;5.672;2024-02-28T07:37:38;34.33;;;23.23;;
13607;SDS011;6875;50.852;5.672;2024-02-28T07:40:05;35.73;;;23.63;;
13607;SDS011;6875;50.852;5.672;2024-02-28T07:42:33;35.00;;;23.63;;
13607;SDS011;6875;50.852;5.672;2024-02-28T07:45:01;35.20;;;24.43;;
13607;SDS011;6875;50.852;5.672;2024-02-28T07:47:27;39.27;;;24.00;;
13607;SDS011;6875;50.852;5.672;2024-02-28T07:49:55;37.23;;;24.63;;
13607;SDS011;6875;50.852;5.672;2024-02-28T07:52:22;35.57;;;25.53;;
13607;SDS011;6875;50.852;5.672;2024-02-28T07:54:48;32.30;;;23.83;;
13607;SDS011;6875;50.852;5.672;2024-02-28T07:57:15;34.10;;;22.87;;
13607;SDS011;6875;50.852;5.672;2024-02-28T07:59:41;33.17;;;24.03;;
13607;SDS011;6875;50.852;5.672;2024-02-28T08:02:08;36.33;;;25.20;;
13607;SDS011;6875;50.852;5.672;2024-02-28T08:04:36;39.27;;;25.00;;
13607;SDS011;6875;50.852;5.672;2024-02-28T08:07:04;37.77;;;24.23;;
13607;SDS011;6875;50.852;5.672;2024-02-28T08:09:31;37.30;;;25.07;;
13607;SDS011;6875;50.852;5.672;2024-02-28T08:11:57;41.67;;;26.20;;
13607;SDS011;6875;50.852;5.672;2024-02-28T08:14:24;37.00;;;24.30;;
13607;SDS011;6875;50.852;5.672;2024-02-28T08:16:51;33.77;;;22.10;;
13607;SDS011;6875;50.852;5.672;2024-02-28T08:19:17;34.63;;;23.33;;
13607;SDS011;6875;50.852;5.672;2024-02-28T08:21:44;32.87;;;24.30;;
13607;SDS011;6875;50.852;5.672;2024-02-28T08:24:12;38.53;;;24.20;;
13607;SDS011;6875;50.852;5.672;2024-02-28T08:26:39;37.83;;;23.80;;
13607;SDS011;6875;50.852;5.672;2024-02-28T08:29:07;34.83;;;23.50;;
13607;SDS011;6875;50.852;5.672;2024-02-28T08:31:33;38.90;;;24.67;;
13607;SDS011;6875;50.852;5.672;2024-02-28T08:34:05;42.60;;;25.03;;
13607;SDS011;6875;50.852;5.672;2024-02-28T08:36:32;36.53;;;24.13;;
13607;SDS011;6875;50.852;5.672;2024-02-28T08:38:58;39.00;;;25.33;;
13607;SDS011;6875;50.852;5.672;2024-02-28T08:41:26;34.83;;;23.10;;
13607;SDS011;6875;50.852;5.672;2024-02-28T08:43:53;36.93;;;23.90;;
13607;SDS011;6875;50.852;5.672;2024-02-28T08:46:19;42.07;;;24.37;;
13607;SDS011;6875;50.852;5.672;2024-02-28T08:48:46;35.10;;;23.33;;
13607;SDS011;6875;50.852;5.672;2024-02-28T08:51:13;36.17;;;24.07;;
13607;SDS011;6875;50.852;5.672;2024-02-28T08:53:39;41.23;;;25.47;;
13607;SDS011;6875;50.852;5.672;2024-02-28T08:56:06;40.33;;;24.70;;
13607;SDS011;6875;50.852;5.672;2024-02-28T08:58:33;35.67;;;22.77;;
13607;SDS011;6875;50.852;5.672;2024-02-28T09:01:00;34.97;;;24.23;;
13607;SDS011;6875;50.852;5.672;2024-02-28T09:03:27;39.57;;;24.27;;
13607;SDS011;6875;50.852;5.672;2024-02-28T09:05:53;40.33;;;24.03;;
13607;SDS011;6875;50.852;5.672;2024-02-28T09:08:20;33.90;;;23.13;;
13607;SDS011;6875;50.852;5.672;2024-02-28T09:10:47;35.00;;;22.93;;
13607;SDS011;6875;50.852;5.672;2024-02-28T09:13:13;33.97;;;23.23;;
13607;SDS011;6875;50.852;5.672;2024-02-28T09:15:41;36.37;;;24.80;;
13607;SDS011;6875;50.852;5.672;2024-02-28T09:18:08;35.27;;;23.03;;
13607;SDS011;6875;50.852;5.672;2024-02-28T09:20:35;39.13;;;24.20;;
13607;SDS011;6875;50.852;5.672;2024-02-28T09:23:02;42.13;;;24.47;;
13607;SDS011;6875;50.852;5.672;2024-02-28T09:25:28;38.13;;;23.73;;
13607;SDS011;6875;50.852;5.672;2024-02-28T09:27:55;38.80;;;24.07;;
13607;SDS011;6875;50.852;5.672;2024-02-28T09:30:22;41.10;;;23.63;;
13607;SDS011;6875;50.852;5.672;2024-02-28T09:32:50;37.97;;;23.93;;
13607;SDS011;6875;50.852;5.672;2024-02-28T09:35:17;41.37;;;24.13;;
13607;SDS011;6875;50.852;5.672;2024-02-28T09:37:43;44.07;;;24.23;;
13607;SDS011;6875;50.852;5.672;2024-02-28T09:40:10;46.13;;;25.43;;
13607;SDS011;6875;50.852;5.672;2024-02-28T09:42:38;44.57;;;26.80;;
13607;SDS011;6875;50.852;5.672;2024-02-28T09:45:05;40.23;;;24.87;;
13607;SDS011;6875;50.852;5.672;2024-02-28T09:47:34;43.30;;;25.50;;
13607;SDS011;6875;50.852;5.672;2024-02-28T09:50:03;43.70;;;24.70;;
13607;SDS011;6875;50.852;5.672;2024-02-28T09:52:31;39.93;;;24.27;;
13607;SDS011;6875;50.852;5.672;2024-02-28T09:54:57;35.57;;;24.90;;
13607;SDS011;6875;50.852;5.672;2024-02-28T09:57:24;40.43;;;24.27;;
13607;SDS011;6875;50.852;5.672;2024-02-28T09:59:54;38.10;;;24.53;;
13607;SDS011;6875;50.852;5.672;2024-02-28T10:02:21;45.40;;;27.50;;
13607;SDS011;6875;50.852;5.672;2024-02-28T10:04:48;37.87;;;25.17;;
13607;SDS011;6875;50.852;5.672;2024-02-28T10:07:16;43.93;;;25.17;;
13607;SDS011;6875;50.852;5.672;2024-02-28T10:09:43;38.87;;;25.60;;
13607;SDS011;6875;50.852;5.672;2024-02-28T10:12:09;46.13;;;25.30;;
13607;SDS011;6875;50.852;5.672;2024-02-28T10:14:36;43.67;;;25.33;;
13607;SDS011;6875;50.852;5.672;2024-02-28T10:17:03;40.77;;;25.50;;
13607;SDS011;6875;50.852;5.672;2024-02-28T10:19:30;45.30;;;24.80;;
13607;SDS011;6875;50.852;5.672;2024-02-28T10:21:56;42.97;;;25.13;;
13607;SDS011;6875;50.852;5.672;2024-02-28T10:24:25;38.63;;;23.93;;
13607;SDS011;6875;50.852;5.672;2024-02-28T10:26:51;46.33;;;25.77;;
13607;SDS011;6875;50.852;5.672;2024-02-28T10:29:21;39.10;;;24.33;;
13607;SDS011;6875;50.852;5.672;2024-02-28T10:31:48;41.93;;;23.73;;
13607;SDS011;6875;50.852;5.672;2024-02-28T10:34:15;38.87;;;24.90;;
13607;SDS011;6875;50.852;5.672;2024-02-28T10:36:43;35.17;;;22.63;;
13607;SDS011;6875;50.852;5.672;2024-02-28T10:39:10;36.00;;;22.80;;
13607;SDS011;6875;50.852;5.672;2024-02-28T10:41:39;42.77;;;23.27;;
13607;SDS011;6875;50.852;5.672;2024-02-28T10:44:05;37.73;;;23.73;;
13607;SDS011;6875;50.852;5.672;2024-02-28T10:46:32;33.30;;;23.43;;
13607;SDS011;6875;50.852;5.672;2024-02-28T10:48:59;35.63;;;24.83;;
13607;SDS011;6875;50.852;5.672;2024-02-28T10:51:25;37.90;;;23.53;;
13607;SDS011;6875;50.852;5.672;2024-02-28T10:53:54;39.37;;;24.47;;
13607;SDS011;6875;50.852;5.672;2024-02-28T10:56:28;41.03;;;23.33;;
13607;SDS011;6875;50.852;5.672;2024-02-28T10:58:58;40.60;;;24.87;;
13607;SDS011;6875;50.852;5.672;2024-02-28T11:01:25;37.87;;;23.13;;
13607;SDS011;6875;50.852;5.672;2024-02-28T11:03:52;30.87;;;19.63;;
13607;SDS011;6875;50.852;5.672;2024-02-28T11:06:19;31.40;;;21.63;;
13607;SDS011;6875;50.852;5.672;2024-02-28T11:08:49;30.87;;;21.30;;
13607;SDS011;6875;50.852;5.672;2024-02-28T11:11:19;33.63;;;21.17;;
13607;SDS011;6875;50.852;5.672;2024-02-28T11:13:52;27.73;;;20.57;;
13607;SDS011;6875;50.852;5.672;2024-02-28T11:16:26;28.23;;;19.23;;
13607;SDS011;6875;50.852;5.672;2024-02-28T11:18:54;28.23;;;20.00;;
13607;SDS011;6875;50.852;5.672;2024-02-28T11:21:22;29.77;;;19.70;;
13607;SDS011;6875;50.852;5.672;2024-02-28T11:23:50;27.97;;;18.73;;
13607;SDS011;6875;50.852;5.672;2024-02-28T11:26:17;27.60;;;18.23;;
13607;SDS011;6875;50.852;5.672;2024-02-28T11:28:45;30.13;;;20.23;;
13607;SDS011;6875;50.852;5.672;2024-02-28T11:31:12;30.63;;;19.43;;
13607;SDS011;6875;50.852;5.672;2024-02-28T11:33:40;28.63;;;19.03;;
13607;SDS011;6875;50.852;5.672;2024-02-28T11:36:06;30.13;;;19.77;;
13607;SDS011;6875;50.852;5.672;2024-02-28T11:38:34;26.30;;;16.03;;
13607;SDS011;6875;50.852;5.672;2024-02-28T11:41:03;26.80;;;18.47;;
13607;SDS011;6875;50.852;5.672;2024-02-28T11:43:30;24.00;;;16.60;;
13607;SDS011;6875;50.852;5.672;2024-02-28T11:45:57;23.23;;;17.40;;
13607;SDS011;6875;50.852;5.672;2024-02-28T11:48:24;24.00;;;17.30;;
13607;SDS011;6875;50.852;5.672;2024-02-28T11:50:53;24.77;;;18.13;;
13607;SDS011;6875;50.852;5.672;2024-02-28T11:53:19;25.53;;;17.63;;
13607;SDS011;6875;50.852;5.672;2024-02-28T11:55:46;27.80;;;19.20;;
13607;SDS011;6875;50.852;5.672;2024-02-28T11:58:14;29.07;;;19.00;;
13607;SDS011;6875;50.852;5.672;2024-02-28T12:00:47;28.80;;;19.90;;
13607;SDS011;6875;50.852;5.672;2024-02-28T12:03:14;31.40;;;20.93;;
13607;SDS011;6875;50.852;5.672;2024-02-28T12:05:42;33.60;;;22.67;;
13607;SDS011;6875;50.852;5.672;2024-02-28T12:08:10;34.13;;;22.60;;
13607;SDS011;6875;50.852;5.672;2024-02-28T12:10:37;30.50;;;21.70;;
13607;SDS011;6875;50.852;5.672;2024-02-28T12:13:04;29.27;;;21.07;;
13607;SDS011;6875;50.852;5.672;2024-02-28T12:15:32;34.97;;;20.67;;
13607;SDS011;6875;50.852;5.672;2024-02-28T12:17:59;29.87;;;19.87;;
13607;SDS011;6875;50.852;5.672;2024-02-28T12:20:25;32.40;;;21.10;;
13607;SDS011;6875;50.852;5.672;2024-02-28T12:22:52;29.90;;;19.97;;
13607;SDS011;6875;50.852;5.672;2024-02-28T12:25:20;28.77;;;20.47;;
13607;SDS011;6875;50.852;5.672;2024-02-28T12:27:47;25.77;;;18.57;;
13607;SDS011;6875;50.852;5.672;2024-02-28T12:30:13;25.27;;;16.30;;
13607;SDS011;6875;50.852;5.672;2024-02-28T12:32:40;26.50;;;17.70;;
13607;SDS011;6875;50.852;5.672;2024-02-28T12:35:07;24.90;;;18.17;;
13607;SDS011;6875;50.852;5.672;2024-02-28T12:37:34;23.70;;;17.37;;
13607;SDS011;6875;50.852;5.672;2024-02-28T12:40:00;24.73;;;17.60;;
13607;SDS011;6875;50.852;5.672;2024-02-28T12:42:31;22.70;;;16.63;;
13607;SDS011;6875;50.852;5.672;2024-02-28T12:44:57;19.50;;;15.20;;
13607;SDS011;6875;50.852;5.672;2024-02-28T12:47:24;21.83;;;17.27;;
13607;SDS011;6875;50.852;5.672;2024-02-28T12:49:50;23.77;;;17.83;;
13607;SDS011;6875;50.852;5.672;2024-02-28T12:52:17;23.97;;;17.10;;
13607;SDS011;6875;50.852;5.672;2024-02-28T12:54:44;21.93;;;15.53;;
13607;SDS011;6875;50.852;5.672;2024-02-28T12:57:10;25.33;;;17.37;;
13607;SDS011;6875;50.852;5.672;2024-02-28T12:59:43;24.37;;;17.47;;
13607;SDS011;6875;50.852;5.672;2024-02-28T13:02:09;26.50;;;19.00;;
13607;SDS011;6875;50.852;5.672;2024-02-28T13:04:36;23.87;;;17.10;;
13607;SDS011;6875;50.852;5.672;2024-02-28T13:07:04;24.03;;;17.13;;
13607;SDS011;6875;50.852;5.672;2024-02-28T13:09:30;22.93;;;18.07;;
13607;SDS011;6875;50.852;5.672;2024-02-28T13:11:57;22.03;;;17.90;;
13607;SDS011;6875;50.852;5.672;2024-02-28T13:14:25;24.07;;;17.87;;
13607;SDS011;6875;50.852;5.672;2024-02-28T13:16:52;20.50;;;16.40;;
13607;SDS011;6875;50.852;5.672;2024-02-28T13:19:19;22.67;;;17.50;;
13607;SDS011;6875;50.852;5.672;2024-02-28T13:21:46;24.13;;;16.80;;
13607;SDS011;6875;50.852;5.672;2024-02-28T13:24:13;23.20;;;16.53;;
13607;SDS011;6875;50.852;5.672;2024-02-28T13:26:40;20.37;;;15.80;;
13607;SDS011;6875;50.852;5.672;2024-02-28T13:29:06;23.23;;;17.47;;
13607;SDS011;6875;50.852;5.672;2024-02-28T13:31:33;25.67;;;16.97;;
13607;SDS011;6875;50.852;5.672;2024-02-28T13:34:01;24.37;;;16.67;;
13607;SDS011;6875;50.852;5.672;2024-02-28T13:36:28;23.10;;;16.77;;
13607;SDS011;6875;50.852;5.672;2024-02-28T13:38:57;24.27;;;16.73;;
13607;SDS011;6875;50.852;5.672;2024-02-28T13:41:23;23.40;;;16.77;;
13607;SDS011;6875;50.852;5.672;2024-02-28T13:43:50;23.00;;;16.47;;
13607;SDS011;6875;50.852;5.672;2024-02-28T13:46:16;22.23;;;15.13;;
13607;SDS011;6875;50.852;5.672;2024-02-28T13:48:44;21.17;;;14.23;;
13607;SDS011;6875;50.852;5.672;2024-02-28T13:51:12;21.23;;;15.17;;
13607;SDS011;6875;50.852;5.672;2024-02-28T13:53:43;25.40;;;16.40;;
13607;SDS011;6875;50.852;5.672;2024-02-28T13:56:09;25.20;;;17.03;;
13607;SDS011;6875;50.852;5.672;2024-02-28T13:58:36;23.97;;;16.53;;
13607;SDS011;6875;50.852;5.672;2024-02-28T14:01:02;21.70;;;15.10;;
13607;SDS011;6875;50.852;5.672;2024-02-28T14:03:31;21.73;;;15.23;;
13607;SDS011;6875;50.852;5.672;2024-02-28T14:05:58;24.43;;;15.73;;
13607;SDS011;6875;50.852;5.672;2024-02-28T14:08:26;25.50;;;17.13;;
13607;SDS011;6875;50.852;5.672;2024-02-28T14:10:52;23.37;;;17.07;;
13607;SDS011;6875;50.852;5.672;2024-02-28T14:13:19;28.80;;;18.20;;
13607;SDS011;6875;50.852;5.672;2024-02-28T14:15:46;26.13;;;16.90;;
13607;SDS011;6875;50.852;5.672;2024-02-28T14:18:13;26.10;;;16.63;;
13607;SDS011;6875;50.852;5.672;2024-02-28T14:20:39;24.77;;;16.50;;
13607;SDS011;6875;50.852;5.672;2024-02-28T14:23:07;22.40;;;16.87;;
13607;SDS011;6875;50.852;5.672;2024-02-28T14:25:35;26.47;;;15.30;;
13607;SDS011;6875;50.852;5.672;2024-02-28T14:28:02;21.67;;;15.23;;
13607;SDS011;6875;50.852;5.672;2024-02-28T14:30:29;20.40;;;13.87;;
13607;SDS011;6875;50.852;5.672;2024-02-28T14:32:55;22.07;;;14.90;;